Dru Lirette — WDB9956 — position and weather

sailwx.info

Track history (hours):
 
Tides and Currents Weather Stations Pressure Air Temp Water Temp Dewpoint Dewpoint Depression Visibility Wind Speed Wind Dir Waves Ship Positions

Dru Lirette

Owner: AEP River Operations LLC, Chesterfield, MO. More information available from US FCC via Universal Licensing System and Coast Guard Vessel Documentation Center.

Last reported at 2015-Apr-06 22:32 UTC. Time now 2015-Apr-18 08:53 UTC.
Position N 38°56' W 084°52'.
Warning: this ship's position is 11 days out of date.

Length 46 m; draft 10 m.

Type: Towing. MMSI: 366985660.

Date/timePositionNaut miles runAvg speedWind from/ knotsBaromVisibWave heightAir tempDewpointWater temp
2015-Apr-06 22:32N 38°56' W 084°52'7 5.4
2015-Apr-06 21:20N 39°02' W 084°53'5 6.1
2015-Apr-06 20:32N 39°06' W 084°50'5 5.5
2015-Apr-06 19:33N 39°08' W 084°43'2 2.3
2015-Apr-06 18:33N 39°06' W 084°41'0 0.0
2015-Apr-06 17:33N 39°06' W 084°41'0 0.0
2015-Apr-06 16:32N 39°06' W 084°41'0 0.0
2015-Apr-06 15:32N 39°06' W 084°41'0 0.0
2015-Apr-06 14:32N 39°06' W 084°41'0 0.0
2015-Apr-06 13:32N 39°06' W 084°41'0 0.0
2015-Apr-06 12:32N 39°06' W 084°41'0 0.0
2015-Apr-06 11:33N 39°06' W 084°41'0 0.0
2015-Apr-06 10:33N 39°06' W 084°41'0 0.0
2015-Apr-06 09:33N 39°06' W 084°41'0 0.0
2015-Apr-06 08:32N 39°06' W 084°41'0 0.0
2015-Apr-06 07:33N 39°06' W 084°41'0 0.0
2015-Apr-06 06:32N 39°06' W 084°41'0 0.3
2015-Apr-06 05:33N 39°06' W 084°41'6 6.2
2015-Apr-06 04:33N 39°06' W 084°33'5 5.4
2015-Apr-06 03:33N 39°05' W 084°26'4 3.6
2015-Apr-06 02:33N 39°02' W 084°23'0 0.1
2015-Apr-06 01:32N 39°02' W 084°23'1 0.8
2015-Apr-06 00:33N 39°03' W 084°22'6 5.8
2015-Apr-05 23:31N 38°58' W 084°18'0 0.3
2015-Apr-05 22:33N 38°57' W 084°17'5 5.4
2015-Apr-05 21:33N 38°53' W 084°14'94 3.2
2015-Apr-04 16:31N 38°47' W 082°13'3 2.8
2015-Apr-04 15:31N 38°49' W 082°11'0 0.0
2015-Apr-04 14:31N 38°49' W 082°11'0 0.0
2015-Apr-04 13:32N 38°49' W 082°11'0 0.0
2015-Apr-04 12:31N 38°49' W 082°11'1 1.5
2015-Apr-04 11:31N 38°50' W 082°09'0 0.0
2015-Apr-04 10:31N 38°50' W 082°09'0 0.0
2015-Apr-04 09:32N 38°50' W 082°09'0 0.3
2015-Apr-04 08:30N 38°50' W 082°09'2 2.1
2015-Apr-04 07:29N 38°52' W 082°08'4 4.2
2015-Apr-04 06:28N 38°56' W 082°07'0 0.0
2015-Apr-04 05:23N 38°56' W 082°07'1 0.9
2015-Apr-04 04:23N 38°57' W 082°06'0 0.0
2015-Apr-04 03:26N 38°57' W 082°06'0 0.0
2015-Apr-04 02:28N 38°57' W 082°06'0 0.0
2015-Apr-04 01:33N 38°57' W 082°06'3 2.6
2015-Apr-04 00:28N 38°59' W 082°04'4 4.2
2015-Apr-03 23:33N 39°01' W 081°60'4 1.0
2015-Apr-03 20:03N 38°59' W 081°56'1 1.2
2015-Apr-03 19:29N 38°59' W 081°56'0 0.5
2015-Apr-03 18:29N 38°59' W 081°56'  
2015-Mar-29 18:06N 38°60' W 081°57'0 0.0
2015-Mar-29 17:15N 38°60' W 081°57'0 0.0
2015-Mar-29 16:22N 38°60' W 081°57'10 9.7
2015-Mar-29 15:20N 38°54' W 082°08'0 0.0
2015-Mar-29 14:14N 38°54' W 082°08'6 8.7
2015-Mar-29 13:30N 38°59' W 082°04'6 6.3
2015-Mar-29 12:31N 38°54' W 082°08'1 0.7
2015-Mar-29 11:31N 38°54' W 082°09'3 3.3
2015-Mar-29 10:31N 38°50' W 082°09'1 0.6
2015-Mar-29 09:31N 38°50' W 082°08'0 0.0
2015-Mar-29 08:30N 38°50' W 082°08'2 2.1
2015-Mar-29 07:33N 38°49' W 082°10'0 0.0
2015-Mar-29 06:33N 38°49' W 082°10'0 0.0
2015-Mar-29 05:34N 38°49' W 082°10'0 0.0
2015-Mar-29 04:29N 38°49' W 082°10'0 0.0
2015-Mar-29 03:31N 38°49' W 082°10'4 3.5
2015-Mar-29 02:28N 38°46' W 082°13'  
Track history (hours):
 
Tides and Currents Weather Stations Pressure Air Temp Water Temp Dewpoint Dewpoint Depression Visibility Wind Speed Wind Dir Waves Ship Positions

Dru Lirette

Owner: AEP River Operations LLC, Chesterfield, MO. More information available from US FCC via Universal Licensing System and Coast Guard Vessel Documentation Center.

Last reported at 2015-Apr-06 22:32 UTC. Time now 2015-Apr-18 08:53 UTC.
Position N 38°56' W 084°52'.
Warning: this ship's position is 11 days out of date.

Length 46 m; draft 10 m.

Type: Towing. MMSI: 366985660.

Date/timePositionNaut miles runAvg speedWind from/ knotsBaromVisibWave heightAir tempDewpointWater temp
2015-Apr-06 22:32N 38°56' W 084°52'7 5.4
2015-Apr-06 21:20N 39°02' W 084°53'5 6.1
2015-Apr-06 20:32N 39°06' W 084°50'5 5.5
2015-Apr-06 19:33N 39°08' W 084°43'2 2.3
2015-Apr-06 18:33N 39°06' W 084°41'0 0.0
2015-Apr-06 17:33N 39°06' W 084°41'0 0.0
2015-Apr-06 16:32N 39°06' W 084°41'0 0.0
2015-Apr-06 15:32N 39°06' W 084°41'0 0.0
2015-Apr-06 14:32N 39°06' W 084°41'0 0.0
2015-Apr-06 13:32N 39°06' W 084°41'0 0.0
2015-Apr-06 12:32N 39°06' W 084°41'0 0.0
2015-Apr-06 11:33N 39°06' W 084°41'0 0.0
2015-Apr-06 10:33N 39°06' W 084°41'0 0.0
2015-Apr-06 09:33N 39°06' W 084°41'0 0.0
2015-Apr-06 08:32N 39°06' W 084°41'0 0.0
2015-Apr-06 07:33N 39°06' W 084°41'0 0.0
2015-Apr-06 06:32N 39°06' W 084°41'0 0.3
2015-Apr-06 05:33N 39°06' W 084°41'6 6.2
2015-Apr-06 04:33N 39°06' W 084°33'5 5.4
2015-Apr-06 03:33N 39°05' W 084°26'4 3.6
2015-Apr-06 02:33N 39°02' W 084°23'0 0.1
2015-Apr-06 01:32N 39°02' W 084°23'1 0.8
2015-Apr-06 00:33N 39°03' W 084°22'6 5.8
2015-Apr-05 23:31N 38°58' W 084°18'0 0.3
2015-Apr-05 22:33N 38°57' W 084°17'5 5.4
2015-Apr-05 21:33N 38°53' W 084°14'94 3.2
2015-Apr-04 16:31N 38°47' W 082°13'3 2.8
2015-Apr-04 15:31N 38°49' W 082°11'0 0.0
2015-Apr-04 14:31N 38°49' W 082°11'0 0.0
2015-Apr-04 13:32N 38°49' W 082°11'0 0.0
2015-Apr-04 12:31N 38°49' W 082°11'1 1.5
2015-Apr-04 11:31N 38°50' W 082°09'0 0.0
2015-Apr-04 10:31N 38°50' W 082°09'0 0.0
2015-Apr-04 09:32N 38°50' W 082°09'0 0.3
2015-Apr-04 08:30N 38°50' W 082°09'2 2.1
2015-Apr-04 07:29N 38°52' W 082°08'4 4.2
2015-Apr-04 06:28N 38°56' W 082°07'0 0.0
2015-Apr-04 05:23N 38°56' W 082°07'1 0.9
2015-Apr-04 04:23N 38°57' W 082°06'0 0.0
2015-Apr-04 03:26N 38°57' W 082°06'0 0.0
2015-Apr-04 02:28N 38°57' W 082°06'0 0.0
2015-Apr-04 01:33N 38°57' W 082°06'3 2.6
2015-Apr-04 00:28N 38°59' W 082°04'4 4.2
2015-Apr-03 23:33N 39°01' W 081°60'4 1.0
2015-Apr-03 20:03N 38°59' W 081°56'1 1.2
2015-Apr-03 19:29N 38°59' W 081°56'0 0.5
2015-Apr-03 18:29N 38°59' W 081°56'  
2015-Mar-29 18:06N 38°60' W 081°57'0 0.0
2015-Mar-29 17:15N 38°60' W 081°57'0 0.0
2015-Mar-29 16:22N 38°60' W 081°57'10 9.7
2015-Mar-29 15:20N 38°54' W 082°08'0 0.0
2015-Mar-29 14:14N 38°54' W 082°08'6 8.7
2015-Mar-29 13:30N 38°59' W 082°04'6 6.3
2015-Mar-29 12:31N 38°54' W 082°08'1 0.7
2015-Mar-29 11:31N 38°54' W 082°09'3 3.3
2015-Mar-29 10:31N 38°50' W 082°09'1 0.6
2015-Mar-29 09:31N 38°50' W 082°08'0 0.0
2015-Mar-29 08:30N 38°50' W 082°08'2 2.1
2015-Mar-29 07:33N 38°49' W 082°10'0 0.0
2015-Mar-29 06:33N 38°49' W 082°10'0 0.0
2015-Mar-29 05:34N 38°49' W 082°10'0 0.0
2015-Mar-29 04:29N 38°49' W 082°10'0 0.0
2015-Mar-29 03:31N 38°49' W 082°10'4 3.5
2015-Mar-29 02:28N 38°46' W 082°13'  

Dump ship's entire track history